createdAt,value
2023-03-14T00:01:09.000Z,9.2
2023-03-14T00:02:25.000Z,2.6
2023-03-14T00:03:41.000Z,6.2
2023-03-14T00:04:57.000Z,4.6
2023-03-14T00:06:13.000Z,7.8
2023-03-14T00:07:30.000Z,6.9
2023-03-14T00:08:46.000Z,5.7
2023-03-14T00:10:02.000Z,5.2
2023-03-14T00:11:18.000Z,5.3
2023-03-14T00:12:35.000Z,4.4
2023-03-14T00:13:50.000Z,3.9
2023-03-14T00:15:06.000Z,3.2
2023-03-14T00:16:22.000Z,4.9
2023-03-14T00:17:39.000Z,7.5
2023-03-14T00:18:55.000Z,8.6
2023-03-14T00:20:11.000Z,2.9
2023-03-14T00:21:27.000Z,5
2023-03-14T00:22:44.000Z,2.5
2023-03-14T00:24:00.000Z,4.2
2023-03-14T00:25:16.000Z,6.8
2023-03-14T00:26:32.000Z,2.8
2023-03-14T00:27:48.000Z,6.1
2023-03-14T00:29:05.000Z,4.3
2023-03-14T00:30:20.000Z,9.5
2023-03-14T00:31:36.000Z,4.4
2023-03-14T00:32:52.000Z,5.8
2023-03-14T00:34:09.000Z,9.9
2023-03-14T00:35:25.000Z,3.5
2023-03-14T00:36:41.000Z,6.1
2023-03-14T00:37:57.000Z,6.4
2023-03-14T00:39:14.000Z,4.3
2023-03-14T00:40:30.000Z,4.3
2023-03-14T00:41:46.000Z,3.4
2023-03-14T00:43:02.000Z,4.6
2023-03-14T00:44:19.000Z,4
2023-03-14T00:45:35.000Z,4
2023-03-14T00:46:50.000Z,4.7
2023-03-14T00:48:06.000Z,4.3
2023-03-14T00:49:22.000Z,2.4
2023-03-14T00:50:39.000Z,7.5
2023-03-14T00:51:55.000Z,4.8
2023-03-14T00:53:11.000Z,7.2
2023-03-14T00:54:26.000Z,4.9
2023-03-14T00:55:42.000Z,8.6
2023-03-14T00:56:58.000Z,9.2
2023-03-14T00:58:14.000Z,4.5
2023-03-14T00:59:30.000Z,4.8
2023-03-14T01:00:47.000Z,5
2023-03-14T01:02:02.000Z,5.2
2023-03-14T01:03:17.000Z,5.9
2023-03-14T01:04:33.000Z,3.9
2023-03-14T01:05:50.000Z,6.4
2023-03-14T01:07:06.000Z,6.8
2023-03-14T01:08:22.000Z,3
2023-03-14T01:09:38.000Z,7.2
2023-03-14T01:10:55.000Z,3.1
2023-03-14T01:12:11.000Z,4.2
2023-03-14T01:13:27.000Z,7
2023-03-14T01:14:43.000Z,4.6
2023-03-14T01:15:59.000Z,6.5
2023-03-14T01:17:16.000Z,7.8
2023-03-14T01:18:32.000Z,5.4
2023-03-14T01:19:47.000Z,5.5
2023-03-14T01:21:03.000Z,7.2
2023-03-14T01:22:20.000Z,3.6
2023-03-14T01:23:36.000Z,4.6
2023-03-14T01:24:52.000Z,7
2023-03-14T01:26:08.000Z,6.9
2023-03-14T01:27:25.000Z,4.2
2023-03-14T01:28:41.000Z,7.3
2023-03-14T01:29:57.000Z,4.3
2023-03-14T01:31:13.000Z,2.4
2023-03-14T01:32:30.000Z,6.1
2023-03-14T01:33:46.000Z,5.3
2023-03-14T01:35:02.000Z,10.4
2023-03-14T01:36:17.000Z,3.7
2023-03-14T01:37:33.000Z,3.8
2023-03-14T01:38:50.000Z,2.7
2023-03-14T01:40:06.000Z,5.1
2023-03-14T01:41:22.000Z,4.7
2023-03-14T01:42:38.000Z,3.6
2023-03-14T01:43:55.000Z,5
2023-03-14T01:45:11.000Z,4.7
2023-03-14T01:46:27.000Z,3.5
2023-03-14T01:47:43.000Z,3.3
2023-03-14T01:49:00.000Z,7.4
2023-03-14T01:50:16.000Z,5.2
2023-03-14T01:51:32.000Z,2.5
2023-03-14T01:52:47.000Z,5
2023-03-14T01:54:04.000Z,9.8
2023-03-14T01:55:20.000Z,3.1
2023-03-14T01:56:36.000Z,4.5
2023-03-14T01:57:52.000Z,6
2023-03-14T01:59:08.000Z,2.3
2023-03-14T02:00:25.000Z,3.7
2023-03-14T02:01:41.000Z,4.9
2023-03-14T02:02:57.000Z,4.3
2023-03-14T02:04:13.000Z,5
2023-03-14T02:05:30.000Z,4.3
2023-03-14T02:06:46.000Z,8.3
2023-03-14T02:08:02.000Z,3.9
2023-03-14T02:09:17.000Z,5.2
2023-03-14T02:10:34.000Z,6.6
2023-03-14T02:13:06.000Z,5
2023-03-14T02:14:22.000Z,8
2023-03-14T02:15:39.000Z,6.7
2023-03-14T02:16:55.000Z,5.2
2023-03-14T02:18:11.000Z,6
2023-03-14T02:19:27.000Z,2.6
2023-03-14T02:20:43.000Z,8.1
2023-03-14T02:22:00.000Z,5.7
2023-03-14T02:23:16.000Z,7.1
2023-03-14T02:24:32.000Z,2.2
2023-03-14T02:25:47.000Z,4.2
2023-03-14T02:27:04.000Z,4.5
2023-03-14T02:28:20.000Z,3.5
2023-03-14T02:29:36.000Z,6.3
2023-03-14T02:30:52.000Z,6
2023-03-14T02:32:09.000Z,4.5
2023-03-14T02:33:25.000Z,3
2023-03-14T02:34:41.000Z,2.7
2023-03-14T02:35:57.000Z,9.4
2023-03-14T02:37:14.000Z,4.1
2023-03-14T02:38:30.000Z,5.8
2023-03-14T02:39:46.000Z,2.1
2023-03-14T02:41:02.000Z,5.3
2023-03-14T02:42:17.000Z,8
2023-03-14T02:43:34.000Z,3.3
2023-03-14T02:44:50.000Z,7.5
2023-03-14T02:46:06.000Z,1.6
2023-03-14T02:47:22.000Z,5.5
2023-03-14T02:48:39.000Z,3.5
2023-03-14T02:49:55.000Z,3.2
2023-03-14T02:51:11.000Z,3
2023-03-14T02:52:27.000Z,4.3
2023-03-14T02:53:44.000Z,4
2023-03-14T02:55:00.000Z,3.5
2023-03-14T02:56:16.000Z,3.8
2023-03-14T02:57:32.000Z,3.4
2023-03-14T02:58:48.000Z,3.8
2023-03-14T03:00:04.000Z,1.3
2023-03-14T03:01:20.000Z,1.5
2023-03-14T03:02:36.000Z,5.4
2023-03-14T03:03:52.000Z,3.7
2023-03-14T03:05:09.000Z,3
2023-03-14T03:06:25.000Z,8.1
2023-03-14T03:07:41.000Z,3.4
2023-03-14T03:08:57.000Z,3.9
2023-03-14T03:12:46.000Z,5.4
2023-03-14T03:14:02.000Z,4.8
2023-03-14T03:15:18.000Z,1.7
2023-03-14T03:16:34.000Z,4
2023-03-14T03:17:50.000Z,2.2
2023-03-14T03:19:06.000Z,5
2023-03-14T03:20:23.000Z,3.8
2023-03-14T03:21:39.000Z,7.1
2023-03-14T03:22:55.000Z,4.2
2023-03-14T03:24:11.000Z,11.9
2023-03-14T03:25:27.000Z,6.4
2023-03-14T03:26:44.000Z,6.4
2023-03-14T03:28:00.000Z,4.5
2023-03-14T03:29:16.000Z,4.6
2023-03-14T03:30:32.000Z,7
2023-03-14T03:31:48.000Z,7.5
2023-03-14T03:33:04.000Z,6.5
2023-03-14T03:34:20.000Z,4.2
2023-03-14T03:35:36.000Z,3.9
2023-03-14T03:36:53.000Z,2.8
2023-03-14T03:38:09.000Z,3.5
2023-03-14T03:39:25.000Z,1.8
2023-03-14T03:40:41.000Z,2
2023-03-14T03:41:58.000Z,4.3
2023-03-14T03:43:14.000Z,5.6
2023-03-14T03:44:30.000Z,4.5
2023-03-14T03:45:46.000Z,2.5
2023-03-14T03:47:02.000Z,7.4
2023-03-14T03:48:18.000Z,6.2
2023-03-14T03:49:34.000Z,3.9
2023-03-14T03:50:50.000Z,4.9
2023-03-14T03:52:06.000Z,2.9
2023-03-14T03:53:23.000Z,3.4
2023-03-14T03:54:39.000Z,3.3
2023-03-14T03:55:55.000Z,6.7
2023-03-14T03:58:28.000Z,4.9
2023-03-14T03:59:44.000Z,4.4
2023-03-14T04:01:00.000Z,4.2
2023-03-14T04:02:16.000Z,9.3
2023-03-14T04:03:32.000Z,5.8
2023-03-14T04:04:48.000Z,3.7
2023-03-14T04:06:04.000Z,7.5
2023-03-14T04:07:20.000Z,5.6
2023-03-14T04:08:36.000Z,6.9
2023-03-14T04:09:53.000Z,7.6
2023-03-14T04:11:09.000Z,10
2023-03-14T04:12:25.000Z,7
2023-03-14T04:13:41.000Z,3.6
2023-03-14T04:14:58.000Z,7.4
2023-03-14T04:16:14.000Z,3.9
2023-03-14T04:17:30.000Z,8.2
2023-03-14T04:18:46.000Z,5.6
2023-03-14T04:20:03.000Z,6.9
2023-03-14T04:21:18.000Z,6.3
2023-03-14T04:22:34.000Z,4.8
2023-03-14T04:23:50.000Z,9.5
2023-03-14T04:25:07.000Z,5.9
2023-03-14T04:26:23.000Z,5.2
2023-03-14T04:27:39.000Z,7.3
2023-03-14T04:28:54.000Z,8.6
2023-03-14T04:30:10.000Z,8.7
2023-03-14T04:31:27.000Z,5.6
2023-03-14T04:32:43.000Z,8.4
2023-03-14T04:33:59.000Z,8.3
2023-03-14T04:35:15.000Z,7.9
2023-03-14T04:36:32.000Z,7.3
2023-03-14T04:37:48.000Z,8.3
2023-03-14T04:39:04.000Z,4.5
2023-03-14T04:40:20.000Z,11.1
2023-03-14T04:42:53.000Z,8.6
2023-03-14T04:44:09.000Z,8.4
2023-03-14T04:45:24.000Z,5.9
2023-03-14T04:46:41.000Z,8.8
2023-03-14T04:47:57.000Z,11.2
2023-03-14T04:49:13.000Z,7.7
2023-03-14T04:50:29.000Z,6.7
2023-03-14T04:51:45.000Z,11.7
2023-03-14T04:53:02.000Z,10.6
2023-03-14T04:54:18.000Z,8.9
2023-03-14T04:55:34.000Z,9.4
2023-03-14T04:56:50.000Z,5.7
2023-03-14T04:58:07.000Z,8.6
2023-03-14T04:59:23.000Z,9.2
2023-03-14T05:00:39.000Z,4.6
2023-03-14T05:01:55.000Z,7.6
2023-03-14T05:03:11.000Z,9.5
2023-03-14T05:04:27.000Z,4.5
2023-03-14T05:05:43.000Z,11.5
2023-03-14T05:06:59.000Z,6.3
2023-03-14T05:08:16.000Z,9.9
2023-03-14T05:09:32.000Z,4.2
2023-03-14T05:10:48.000Z,7.3
2023-03-14T05:12:04.000Z,6
2023-03-14T05:13:20.000Z,12.8
2023-03-14T05:14:37.000Z,2.4
2023-03-14T05:15:53.000Z,5.7
2023-03-14T05:17:09.000Z,7.8
2023-03-14T05:18:25.000Z,4.3
2023-03-14T05:19:41.000Z,7.3
2023-03-14T05:22:13.000Z,6.9
2023-03-14T05:23:29.000Z,8.1
2023-03-14T05:24:46.000Z,7.2
2023-03-14T05:26:02.000Z,5.8
2023-03-14T05:27:18.000Z,5.7
2023-03-14T05:28:34.000Z,5.4
2023-03-14T05:29:50.000Z,6
2023-03-14T05:31:07.000Z,4.6
2023-03-14T05:32:23.000Z,7.6
2023-03-14T05:33:39.000Z,8.8
2023-03-14T05:34:55.000Z,6.7
2023-03-14T05:36:11.000Z,5.3
2023-03-14T05:37:27.000Z,4.1
2023-03-14T05:38:43.000Z,3.7
2023-03-14T05:39:59.000Z,5.9
2023-03-14T05:41:16.000Z,2.6
2023-03-14T05:42:32.000Z,5.4
2023-03-14T05:43:48.000Z,3.6
2023-03-14T05:45:04.000Z,4.2
2023-03-14T05:46:21.000Z,9.2
2023-03-14T05:47:37.000Z,5
2023-03-14T05:48:53.000Z,5.9
2023-03-14T05:51:25.000Z,3.1
2023-03-14T05:52:41.000Z,5.1
2023-03-14T05:53:57.000Z,5.3
2023-03-14T05:55:13.000Z,1.4
2023-03-14T05:56:29.000Z,1.9
2023-03-14T05:57:46.000Z,5
2023-03-14T05:59:02.000Z,1.4
2023-03-14T06:00:18.000Z,4
2023-03-14T06:01:34.000Z,7.5
2023-03-14T06:02:51.000Z,1.3
2023-03-14T06:04:07.000Z,2.8
2023-03-14T06:05:23.000Z,4.4
2023-03-14T06:06:39.000Z,5
2023-03-14T06:07:56.000Z,3.5
2023-03-14T06:09:11.000Z,2
2023-03-14T06:10:27.000Z,3.3
2023-03-14T06:11:43.000Z,3.8
2023-03-14T06:12:59.000Z,1.8
2023-03-14T06:14:14.000Z,3.9
2023-03-14T06:15:30.000Z,2.6
2023-03-14T06:16:45.000Z,3.3
2023-03-14T06:18:01.000Z,6.1
2023-03-14T06:19:17.000Z,5
2023-03-14T06:20:33.000Z,3.5
2023-03-14T06:21:49.000Z,3.3
2023-03-14T06:23:05.000Z,1.4
2023-03-14T06:24:22.000Z,6.5
2023-03-14T06:25:38.000Z,1.7
2023-03-14T06:26:54.000Z,2.6
2023-03-14T06:28:10.000Z,1.5
2023-03-14T06:29:27.000Z,4.3
2023-03-14T06:30:43.000Z,1.2
2023-03-14T06:31:59.000Z,3.4
2023-03-14T06:33:15.000Z,3.3
2023-03-14T06:34:31.000Z,4
2023-03-14T06:35:47.000Z,5.5
2023-03-14T06:37:03.000Z,3.8
2023-03-14T06:38:19.000Z,3.7
2023-03-14T06:39:36.000Z,2.2
2023-03-14T06:40:52.000Z,1
2023-03-14T06:42:08.000Z,4.7
2023-03-14T06:43:24.000Z,3.2
2023-03-14T06:44:40.000Z,6.7
2023-03-14T06:45:57.000Z,5.4
2023-03-14T06:47:13.000Z,1.6
2023-03-14T06:48:29.000Z,3.9
2023-03-14T06:49:45.000Z,3.5
2023-03-14T06:51:01.000Z,4.6
2023-03-14T06:52:17.000Z,5.9
2023-03-14T06:53:33.000Z,2.5
2023-03-14T06:54:49.000Z,4
2023-03-14T06:56:06.000Z,3.4
2023-03-14T06:57:22.000Z,4.9
2023-03-14T06:58:38.000Z,4.1
2023-03-14T06:59:54.000Z,5
2023-03-14T07:01:11.000Z,3.8
2023-03-14T07:02:27.000Z,3.2
2023-03-14T07:03:43.000Z,5
2023-03-14T07:04:59.000Z,5
2023-03-14T07:06:15.000Z,4.5
2023-03-14T07:07:31.000Z,3.5
2023-03-14T07:08:47.000Z,8.1
2023-03-14T07:10:03.000Z,4.6
2023-03-14T07:11:19.000Z,3.7
2023-03-14T07:12:36.000Z,4
2023-03-14T07:13:52.000Z,4.5
2023-03-14T07:15:08.000Z,2.4
2023-03-14T07:16:24.000Z,6.5
2023-03-14T07:17:41.000Z,4.3
2023-03-14T07:18:57.000Z,4.5
2023-03-14T07:20:13.000Z,6.1
2023-03-14T07:24:02.000Z,3
2023-03-14T07:25:17.000Z,3.3
2023-03-14T07:26:33.000Z,2.2
2023-03-14T07:27:49.000Z,2
2023-03-14T07:30:22.000Z,3.9
2023-03-14T07:31:37.000Z,5.3
2023-03-14T07:32:52.000Z,5.2
2023-03-14T07:34:09.000Z,4
2023-03-14T07:35:25.000Z,5.6
2023-03-14T07:36:41.000Z,2.2
2023-03-14T07:37:57.000Z,2.6
2023-03-14T07:39:14.000Z,4.6
2023-03-14T07:40:30.000Z,3.2
2023-03-14T07:41:46.000Z,3.4
2023-03-14T07:43:02.000Z,2.5
2023-03-14T07:44:19.000Z,3.8
2023-03-14T07:45:34.000Z,2.6
2023-03-14T07:46:49.000Z,4.7
2023-03-14T07:48:05.000Z,3.8
2023-03-14T07:49:22.000Z,5.1
2023-03-14T07:50:38.000Z,4.1
2023-03-14T07:51:54.000Z,3.1
2023-03-14T07:53:10.000Z,4.6
2023-03-14T07:54:26.000Z,4.2
2023-03-14T07:55:43.000Z,4.6
2023-03-14T07:56:59.000Z,3.4
2023-03-14T07:58:15.000Z,3.9
2023-03-14T07:59:31.000Z,4.5
2023-03-14T08:00:48.000Z,5.4
2023-03-14T08:02:04.000Z,3.5
2023-03-14T08:03:19.000Z,3.4
2023-03-14T08:04:35.000Z,3.4
2023-03-14T08:05:52.000Z,4
2023-03-14T08:07:08.000Z,3.3
2023-03-14T08:08:24.000Z,6.5
2023-03-14T08:09:40.000Z,3.8
2023-03-14T08:10:56.000Z,5.2
2023-03-14T08:12:13.000Z,4.1
2023-03-14T08:13:29.000Z,5.1
2023-03-14T08:14:45.000Z,4.1
2023-03-14T08:16:01.000Z,4.2
2023-03-14T08:17:18.000Z,3.6
2023-03-14T08:18:34.000Z,4.1
2023-03-14T08:19:49.000Z,5.2
2023-03-14T08:21:05.000Z,4.3
2023-03-14T08:22:22.000Z,7.3
2023-03-14T08:23:38.000Z,6.4
2023-03-14T08:24:54.000Z,4.5
2023-03-14T08:26:10.000Z,4
2023-03-14T08:27:27.000Z,4
2023-03-14T08:28:43.000Z,4.3
2023-03-14T08:29:59.000Z,4.5
2023-03-14T08:31:15.000Z,6.6
2023-03-14T08:32:31.000Z,5.9
2023-03-14T08:33:48.000Z,4.3
2023-03-14T08:35:04.000Z,5.7
2023-03-14T08:36:19.000Z,4
2023-03-14T08:37:35.000Z,4.5
2023-03-14T08:38:52.000Z,4.5
2023-03-14T08:40:08.000Z,5.6
2023-03-14T08:41:24.000Z,4
2023-03-14T08:42:40.000Z,4.4
2023-03-14T08:43:56.000Z,3.9
2023-03-14T08:46:28.000Z,4.1
2023-03-14T08:47:44.000Z,3.4
2023-03-14T08:49:01.000Z,3.8
2023-03-14T08:50:17.000Z,3.6
2023-03-14T08:51:33.000Z,3.8
2023-03-14T08:54:06.000Z,3.3
2023-03-14T08:55:22.000Z,3.6
2023-03-14T08:56:38.000Z,5.7
2023-03-14T08:57:54.000Z,4.8
2023-03-14T08:59:10.000Z,3.6
2023-03-14T09:00:26.000Z,4.6
2023-03-14T09:01:42.000Z,4.1
2023-03-14T09:02:58.000Z,3.8
2023-03-14T09:04:14.000Z,4
2023-03-14T09:05:31.000Z,3.9
2023-03-14T09:06:47.000Z,4
2023-03-14T09:08:03.000Z,3.5
2023-03-14T09:09:19.000Z,4.2
2023-03-14T09:10:36.000Z,4.1
2023-03-14T09:11:52.000Z,4.3
2023-03-14T09:13:08.000Z,5.1
2023-03-14T09:14:24.000Z,5.1
2023-03-14T09:15:40.000Z,4
2023-03-14T09:16:56.000Z,3.9
2023-03-14T09:18:12.000Z,4
2023-03-14T09:19:28.000Z,3.6
2023-03-14T09:20:44.000Z,3.6
2023-03-14T09:22:01.000Z,4.2
2023-03-14T09:23:17.000Z,3
2023-03-14T09:24:33.000Z,2.9
2023-03-14T09:25:49.000Z,3.1
2023-03-14T09:27:06.000Z,4.7
2023-03-14T09:28:22.000Z,2.7
2023-03-14T09:29:38.000Z,4.8
2023-03-14T09:30:54.000Z,3.3
2023-03-14T09:32:11.000Z,3.1
2023-03-14T09:33:26.000Z,3.9
2023-03-14T09:34:42.000Z,2.3
2023-03-14T09:35:58.000Z,8.5
2023-03-14T09:37:14.000Z,6.1
2023-03-14T09:38:31.000Z,8.2
2023-03-14T09:39:47.000Z,2.1
2023-03-14T09:41:03.000Z,1
2023-03-14T09:42:19.000Z,0.1
2023-03-14T09:43:36.000Z,0.2
2023-03-14T09:44:52.000Z,0.1
2023-03-14T09:46:08.000Z,0.2
2023-03-14T09:47:24.000Z,0.1
2023-03-14T09:48:41.000Z,0.2
2023-03-14T09:49:56.000Z,0.2
2023-03-14T09:51:12.000Z,0.1
2023-03-14T09:52:28.000Z,0.2
2023-03-14T09:53:45.000Z,0.1
2023-03-14T09:55:01.000Z,0.2
2023-03-14T09:56:17.000Z,0.1
2023-03-14T09:57:33.000Z,0.1
2023-03-14T09:58:49.000Z,0.1
2023-03-14T10:00:06.000Z,0.2
2023-03-14T10:01:22.000Z,0.1
2023-03-14T10:02:37.000Z,0.1
2023-03-14T10:03:52.000Z,0.2
2023-03-14T10:05:08.000Z,0.1
2023-03-14T10:06:23.000Z,0.1
2023-03-14T10:07:39.000Z,0.1
2023-03-14T10:08:55.000Z,0.1
2023-03-14T10:10:12.000Z,0.1
2023-03-14T10:11:28.000Z,0.1
2023-03-14T10:12:44.000Z,0.1
2023-03-14T10:14:00.000Z,0.2
2023-03-14T10:15:17.000Z,0.1
2023-03-14T10:16:33.000Z,0.1
2023-03-14T10:17:49.000Z,0.1
2023-03-14T10:19:05.000Z,0.1
2023-03-14T10:20:22.000Z,0.1
2023-03-14T10:21:38.000Z,0.1
2023-03-14T10:22:54.000Z,0.1
2023-03-14T10:24:09.000Z,0.1
2023-03-14T10:25:26.000Z,0.1
2023-03-14T10:26:42.000Z,0.1
2023-03-14T10:27:58.000Z,0.1
2023-03-14T10:29:14.000Z,0.1
2023-03-14T10:30:30.000Z,0.1
2023-03-14T10:31:46.000Z,0.1
2023-03-14T10:33:01.000Z,0.1
2023-03-14T10:34:17.000Z,0.1
2023-03-14T10:35:33.000Z,0.1
2023-03-14T10:36:50.000Z,0.1
2023-03-14T10:38:06.000Z,0.1
2023-03-14T10:39:21.000Z,0.1
2023-03-14T10:40:36.000Z,0.1
2023-03-14T10:41:53.000Z,0.1
2023-03-14T10:43:09.000Z,0.2
2023-03-14T10:44:25.000Z,0.1
2023-03-14T10:45:41.000Z,0.1
2023-03-14T10:46:58.000Z,0.1
2023-03-14T10:48:14.000Z,0.2
2023-03-14T10:49:30.000Z,0.1
2023-03-14T10:50:46.000Z,0.1
2023-03-14T10:52:03.000Z,0.1
2023-03-14T10:53:19.000Z,0.1
2023-03-14T10:54:35.000Z,0.1
2023-03-14T10:55:51.000Z,0.1
2023-03-14T10:57:06.000Z,0.1
2023-03-14T10:58:23.000Z,0.1
2023-03-14T10:59:39.000Z,0.1
2023-03-14T11:00:55.000Z,0.1
2023-03-14T11:02:11.000Z,0.1
2023-03-14T11:03:28.000Z,0.1
2023-03-14T11:04:44.000Z,0.1
2023-03-14T11:06:00.000Z,0.1
2023-03-14T11:07:16.000Z,0.1
2023-03-14T11:08:33.000Z,0.1
2023-03-14T11:09:49.000Z,0.1
2023-03-14T11:11:05.000Z,0.1
2023-03-14T11:12:21.000Z,0.1
2023-03-14T11:13:37.000Z,0.1
2023-03-14T11:14:53.000Z,0.1
2023-03-14T11:16:09.000Z,0.1
2023-03-14T11:17:25.000Z,0.1
2023-03-14T11:18:41.000Z,0.1
2023-03-14T11:19:58.000Z,0.1
2023-03-14T11:21:14.000Z,0.1
2023-03-14T11:22:30.000Z,0.1
2023-03-14T11:23:46.000Z,0.1
2023-03-14T11:25:03.000Z,0
2023-03-14T11:26:19.000Z,0.1
2023-03-14T11:27:35.000Z,0.1
2023-03-14T11:28:51.000Z,0.1
2023-03-14T11:30:07.000Z,0.1
2023-03-14T11:31:23.000Z,0.1
2023-03-14T11:32:39.000Z,0.1
2023-03-14T11:33:55.000Z,0.1
2023-03-14T11:35:12.000Z,0.1
2023-03-14T11:36:28.000Z,0.1
2023-03-14T11:37:44.000Z,0
2023-03-14T11:39:00.000Z,0.1
2023-03-14T11:40:16.000Z,0.1
2023-03-14T11:41:33.000Z,0.1
2023-03-14T11:42:49.000Z,0.1
2023-03-14T11:44:05.000Z,0.1
2023-03-14T11:45:21.000Z,0
2023-03-14T11:46:37.000Z,0.1
2023-03-14T11:47:53.000Z,0.1
2023-03-14T11:49:09.000Z,0.1
2023-03-14T11:50:25.000Z,0.1
2023-03-14T11:51:42.000Z,0.1
2023-03-14T11:52:58.000Z,0.1
2023-03-14T11:54:14.000Z,0.1
2023-03-14T11:55:30.000Z,0.1
2023-03-14T11:56:47.000Z,0.1
2023-03-14T11:58:03.000Z,0.1
2023-03-14T11:59:19.000Z,2.7
2023-03-14T12:00:35.000Z,0.1
2023-03-14T12:01:51.000Z,0
2023-03-14T12:03:07.000Z,0.1
2023-03-14T12:04:23.000Z,0
2023-03-14T12:05:39.000Z,0.1
2023-03-14T12:06:55.000Z,0
2023-03-14T12:08:12.000Z,0.1
2023-03-14T12:09:28.000Z,0.1
2023-03-14T12:10:44.000Z,0.1
2023-03-14T12:12:00.000Z,0.1
2023-03-14T12:13:17.000Z,0.1
2023-03-14T12:14:33.000Z,0.1
2023-03-14T12:15:49.000Z,0.1
2023-03-14T12:17:05.000Z,0.1
2023-03-14T12:18:21.000Z,0.1
2023-03-14T12:19:37.000Z,0.1
2023-03-14T12:20:53.000Z,0
2023-03-14T12:22:09.000Z,0.1
2023-03-14T12:23:25.000Z,0
2023-03-14T12:24:42.000Z,0.1
2023-03-14T12:25:58.000Z,0.1
2023-03-14T12:27:14.000Z,0.2
2023-03-14T12:28:30.000Z,0.1
2023-03-14T12:29:47.000Z,0.1
2023-03-14T12:31:03.000Z,0.1
2023-03-14T12:32:19.000Z,0.1
2023-03-14T12:33:35.000Z,0.1
2023-03-14T12:34:52.000Z,0.1
2023-03-14T12:36:07.000Z,0.1
2023-03-14T12:37:23.000Z,0.1
2023-03-14T12:39:56.000Z,0.2
2023-03-14T12:41:12.000Z,0.1
2023-03-14T12:42:28.000Z,0.1
2023-03-14T12:43:44.000Z,0.1
2023-03-14T12:45:00.000Z,0.1
2023-03-14T12:46:17.000Z,0.1
2023-03-14T12:47:33.000Z,0.1
2023-03-14T12:48:49.000Z,0
2023-03-14T12:50:05.000Z,0.1
2023-03-14T12:51:22.000Z,0
2023-03-14T12:52:37.000Z,0.1
2023-03-14T12:53:53.000Z,0.1
2023-03-14T12:55:09.000Z,0.1
2023-03-14T12:56:26.000Z,0.1
2023-03-14T12:57:42.000Z,0.1
2023-03-14T12:58:57.000Z,0.1
2023-03-14T13:00:13.000Z,0.1
2023-03-14T13:01:30.000Z,0
2023-03-14T13:02:46.000Z,0.1
2023-03-14T13:04:02.000Z,0.1
2023-03-14T13:05:18.000Z,0.1
2023-03-14T13:06:34.000Z,0
2023-03-14T13:07:51.000Z,0.1
2023-03-14T13:09:07.000Z,0.1
2023-03-14T13:10:23.000Z,0.1
2023-03-14T13:11:39.000Z,0
2023-03-14T13:12:56.000Z,0.1
2023-03-14T13:14:12.000Z,0.1
2023-03-14T13:15:27.000Z,0.1
2023-03-14T13:16:43.000Z,0.1
2023-03-14T13:18:00.000Z,0.1
2023-03-14T13:19:16.000Z,0.1
2023-03-14T13:20:32.000Z,0.1
2023-03-14T13:21:48.000Z,0.1
2023-03-14T13:23:05.000Z,0.1
2023-03-14T13:24:21.000Z,0.1
2023-03-14T13:25:37.000Z,0
2023-03-14T13:26:53.000Z,0.1
2023-03-14T13:28:09.000Z,0.1
2023-03-14T13:29:26.000Z,0.1
2023-03-14T13:30:42.000Z,0.1
2023-03-14T13:31:57.000Z,0.1
2023-03-14T13:33:13.000Z,0.1
2023-03-14T13:34:30.000Z,0.1
2023-03-14T13:35:46.000Z,0.1
2023-03-14T13:37:02.000Z,0.1
2023-03-14T13:38:18.000Z,0.1
2023-03-14T13:39:35.000Z,0.1
2023-03-14T13:40:51.000Z,13.5
2023-03-14T13:42:07.000Z,10.8
2023-03-14T13:43:23.000Z,3.4
2023-03-14T13:44:39.000Z,10.1
2023-03-14T13:45:56.000Z,14
2023-03-14T13:47:12.000Z,12.3
2023-03-14T13:48:27.000Z,13.7
2023-03-14T13:49:43.000Z,8.2
2023-03-14T13:51:00.000Z,13
2023-03-14T13:52:16.000Z,13.8
2023-03-14T13:53:32.000Z,17.4
2023-03-14T13:54:48.000Z,5.7
2023-03-14T13:56:05.000Z,11.4
2023-03-14T13:57:21.000Z,14.4
2023-03-14T13:58:37.000Z,9.9
2023-03-14T13:59:53.000Z,15.5
2023-03-14T14:01:10.000Z,7.8
2023-03-14T14:02:26.000Z,13.7
2023-03-14T14:03:42.000Z,10.9
2023-03-14T14:04:57.000Z,8.8
2023-03-14T14:06:14.000Z,9.3
2023-03-14T14:07:30.000Z,13.7
2023-03-14T14:08:46.000Z,10.7
2023-03-14T14:10:02.000Z,15.7
2023-03-14T14:11:18.000Z,7.4
2023-03-14T14:12:35.000Z,7.9
2023-03-14T14:13:51.000Z,5.8
2023-03-14T14:15:07.000Z,6.6
2023-03-14T14:16:23.000Z,10.8
2023-03-14T14:17:40.000Z,10
2023-03-14T14:18:56.000Z,4.2
2023-03-14T14:20:12.000Z,6.9
2023-03-14T14:21:27.000Z,6.5
2023-03-14T14:22:44.000Z,4.9
2023-03-14T14:24:00.000Z,8.8
2023-03-14T14:25:16.000Z,7.4
2023-03-14T14:26:32.000Z,12.8
2023-03-14T14:27:48.000Z,14
2023-03-14T14:29:05.000Z,3.6
2023-03-14T14:30:21.000Z,8.1
2023-03-14T14:31:37.000Z,4.3
2023-03-14T14:32:53.000Z,4.5
2023-03-14T14:34:10.000Z,7.9
2023-03-14T14:35:26.000Z,11.8
2023-03-14T14:36:42.000Z,6.6
2023-03-14T14:37:57.000Z,7.2
2023-03-14T14:39:14.000Z,6.6
2023-03-14T14:40:30.000Z,15.9
2023-03-14T14:41:46.000Z,10.7
2023-03-14T14:43:02.000Z,7.9
2023-03-14T14:44:19.000Z,8.5
2023-03-14T14:45:35.000Z,10.5
2023-03-14T14:46:51.000Z,5
2023-03-14T14:48:07.000Z,7.6
2023-03-14T14:49:23.000Z,9.8
2023-03-14T14:50:40.000Z,12.1
2023-03-14T14:51:56.000Z,6.1
2023-03-14T14:53:12.000Z,4.1
2023-03-14T14:54:27.000Z,6.1
2023-03-14T14:55:44.000Z,7.4
2023-03-14T14:57:00.000Z,4.7
2023-03-14T14:58:16.000Z,3.1
2023-03-14T14:59:32.000Z,7.3
2023-03-14T15:00:49.000Z,9
2023-03-14T15:02:05.000Z,7
2023-03-14T15:03:21.000Z,4.4
2023-03-14T15:04:37.000Z,6.8
2023-03-14T15:05:54.000Z,10
2023-03-14T15:07:10.000Z,7.7
2023-03-14T15:08:26.000Z,5.6
2023-03-14T15:09:42.000Z,6.4
2023-03-14T15:10:57.000Z,4.3
2023-03-14T15:12:14.000Z,8.1
2023-03-14T15:13:30.000Z,4.2
2023-03-14T15:14:46.000Z,3.3
2023-03-14T15:16:02.000Z,7.3
2023-03-14T15:17:19.000Z,3.3
2023-03-14T15:18:35.000Z,6.2
2023-03-14T15:19:51.000Z,9.8
2023-03-14T15:21:07.000Z,6.9
2023-03-14T15:22:24.000Z,4.5
2023-03-14T15:23:40.000Z,8.4
2023-03-14T15:24:56.000Z,7.8
2023-03-14T15:26:12.000Z,4.4
2023-03-14T15:27:28.000Z,7.5
2023-03-14T15:28:44.000Z,6.5
2023-03-14T15:30:00.000Z,7.8
2023-03-14T15:31:16.000Z,3
2023-03-14T15:32:32.000Z,3
2023-03-14T15:33:49.000Z,3.4
2023-03-14T15:35:05.000Z,5.7
2023-03-14T15:36:21.000Z,5.6
2023-03-14T15:37:37.000Z,3.3
2023-03-14T15:38:54.000Z,4.6
2023-03-14T15:40:10.000Z,3.2
2023-03-14T15:41:26.000Z,3.1
2023-03-14T15:42:42.000Z,12.4
2023-03-14T15:43:58.000Z,5
2023-03-14T15:45:14.000Z,5.6
2023-03-14T15:46:30.000Z,9.5
2023-03-14T15:47:46.000Z,4.3
2023-03-14T15:49:03.000Z,3.6
2023-03-14T15:50:19.000Z,11
2023-03-14T15:51:35.000Z,9.2
2023-03-14T15:52:51.000Z,6.2
2023-03-14T15:54:07.000Z,10.4
2023-03-14T15:55:24.000Z,9.2
2023-03-14T15:56:40.000Z,9.1
2023-03-14T15:57:56.000Z,5.5
2023-03-14T15:59:12.000Z,5.9
2023-03-14T16:00:28.000Z,9.6
2023-03-14T16:01:44.000Z,4.7
2023-03-14T16:03:00.000Z,16.4
2023-03-14T16:04:16.000Z,5.6
2023-03-14T16:05:33.000Z,4.1
2023-03-14T16:06:49.000Z,3
2023-03-14T16:08:05.000Z,5.3
2023-03-14T16:09:21.000Z,4.4
2023-03-14T16:10:38.000Z,5
2023-03-14T16:11:54.000Z,5.3
2023-03-14T16:13:10.000Z,3.7
2023-03-14T16:14:26.000Z,5.7
2023-03-14T16:15:42.000Z,5.7
2023-03-14T16:16:58.000Z,3.9
2023-03-14T16:18:14.000Z,5.7
2023-03-14T16:19:30.000Z,4.4
2023-03-14T16:20:46.000Z,5.7
2023-03-14T16:22:03.000Z,2.2
2023-03-14T16:23:19.000Z,3.3
2023-03-14T16:24:35.000Z,4.4
2023-03-14T16:25:51.000Z,2.8
2023-03-14T16:27:08.000Z,3.5
2023-03-14T16:28:24.000Z,4.7
2023-03-14T16:29:40.000Z,4.9
2023-03-14T16:30:56.000Z,5.6
2023-03-14T16:32:13.000Z,7.4
2023-03-14T16:33:28.000Z,3.3
2023-03-14T16:34:44.000Z,5.9
2023-03-14T16:36:00.000Z,2.4
2023-03-14T16:37:16.000Z,3
2023-03-14T16:38:33.000Z,3.4
2023-03-14T16:39:49.000Z,2.6
2023-03-14T16:41:05.000Z,6.7
2023-03-14T16:42:21.000Z,2.2
2023-03-14T16:43:38.000Z,1.5
2023-03-14T16:44:54.000Z,5.5
2023-03-14T16:46:10.000Z,2.8
2023-03-14T16:47:26.000Z,3.2
2023-03-14T16:48:43.000Z,3.1
2023-03-14T16:49:58.000Z,3.9
2023-03-14T16:51:14.000Z,2.6
2023-03-14T16:52:30.000Z,1.2
2023-03-14T16:53:47.000Z,5.1
2023-03-14T16:55:03.000Z,5.4
2023-03-14T16:56:19.000Z,8.1
2023-03-14T16:57:35.000Z,3.8
2023-03-14T16:58:51.000Z,3.7
2023-03-14T17:00:08.000Z,5.3
2023-03-14T17:01:24.000Z,2.1
2023-03-14T17:02:40.000Z,3.8
2023-03-14T17:03:56.000Z,4.6
2023-03-14T17:05:13.000Z,2.1
2023-03-14T17:06:28.000Z,4.3
2023-03-14T17:07:44.000Z,3.1
2023-03-14T17:09:00.000Z,1.4
2023-03-14T17:10:17.000Z,3.4
2023-03-14T17:11:33.000Z,4.2
2023-03-14T17:12:49.000Z,5.5
2023-03-14T17:14:04.000Z,4
2023-03-14T17:15:21.000Z,2.7
2023-03-14T17:16:37.000Z,5
2023-03-14T17:17:53.000Z,5.7
2023-03-14T17:19:09.000Z,6.5
2023-03-14T17:20:25.000Z,2.1
2023-03-14T17:21:42.000Z,5.1
2023-03-14T17:22:58.000Z,4
2023-03-14T17:24:14.000Z,5.5
2023-03-14T17:25:30.000Z,8.3
2023-03-14T17:26:47.000Z,3.2
2023-03-14T17:28:03.000Z,9
2023-03-14T17:29:19.000Z,6.7
2023-03-14T17:30:34.000Z,4.9
2023-03-14T17:31:51.000Z,8.9
2023-03-14T17:33:07.000Z,5.1
2023-03-14T17:34:23.000Z,6.1
2023-03-14T17:35:39.000Z,6
2023-03-14T17:36:56.000Z,5.7
2023-03-14T17:38:11.000Z,7.5
2023-03-14T17:39:26.000Z,2.8
2023-03-14T17:40:41.000Z,10.3
2023-03-14T17:41:57.000Z,3.2
2023-03-14T17:43:13.000Z,4.5
2023-03-14T17:44:29.000Z,2.4
2023-03-14T17:45:45.000Z,3.3
2023-03-14T17:47:02.000Z,3.9
2023-03-14T17:48:18.000Z,7.7
2023-03-14T17:49:34.000Z,8
2023-03-14T17:50:50.000Z,8